Time;durP1;ratioP1;P1;durP2;ratioP2;P2;SDS_P1;SDS_P2;PMS_P1;PMS_P2;Temp;Humidity;BMP_temperature;BMP_pressure;BME280_temperature;BME280_humidity;BME280_pressure;Samples;Min_cycle;Max_cycle;Signal;HPM_P1;HPM_P2
2023/08/27 00:01:14;;;;;;;16.15;10.20;;;;;;;;;;5094457;28;20024;-79
2023/08/27 00:03:40;;;;;;;12.35;9.98;;;;;;;;;;5094570;28;20032;-83
2023/08/27 00:06:06;;;;;;;17.05;10.75;;;;;;;;;;5094613;28;20085;-80
2023/08/27 00:08:32;;;;;;;14.65;11.05;;;;;;;;;;5076765;28;20077;-81
2023/08/27 00:10:59;;;;;;;14.60;10.45;;;;;;;;;;5095213;28;20040;-80
2023/08/27 00:13:25;;;;;;;14.45;10.30;;;;;;;;;;5094509;28;20024;-84
2023/08/27 00:15:51;;;;;;;16.77;10.93;;;;;;;;;;5077483;28;20024;-83
2023/08/27 00:18:17;;;;;;;21.25;11.73;;;;;;;;;;5094778;28;20020;-80
2023/08/27 00:20:46;;;;;;;15.70;10.35;;;;;;;;;;5076786;28;20090;-85
2023/08/27 00:23:12;;;;;;;15.57;11.23;;;;;;;;;;5095642;28;20095;-84
2023/08/27 00:25:56;;;;;;;17.88;10.90;;;;;;;;;;5077098;28;20058;-83
2023/08/27 00:28:22;;;;;;;15.18;11.10;;;;;;;;;;5095092;28;20024;-83
2023/08/27 00:30:48;;;;;;;16.70;10.82;;;;;;;;;;5095153;28;20118;-85
2023/08/27 00:33:14;;;;;;;16.83;10.75;;;;;;;;;;5095667;28;20101;-84
2023/08/27 00:35:42;;;;;;;12.70;10.40;;;;;;;;;;5095153;28;20454;-84
2023/08/27 00:38:08;;;;;;;14.85;11.43;;;;;;;;;;5095072;28;20111;-85
2023/08/27 00:40:49;;;;;;;16.80;11.38;;;;;;;;;;5095184;28;20024;-84
2023/08/27 00:43:15;;;;;;;14.35;11.15;;;;;;;;;;5077196;28;20027;-83
2023/08/27 00:45:42;;;;;;;14.98;11.10;;;;;;;;;;5094930;28;20024;-83
2023/08/27 00:48:08;;;;;;;15.35;11.68;;;;;;;;;;5095021;28;20137;-84
2023/08/27 00:50:34;;;;;;;16.65;11.10;;;;;;;;;;5094641;28;20501;-85
2023/08/27 00:53:00;;;;;;;16.33;11.65;;;;;;;;;;5094946;28;20070;-85
2023/08/27 00:55:26;;;;;;;17.05;10.60;;;;;;;;;;5095094;28;20031;-87
2023/08/27 00:57:52;;;;;;;14.43;11.23;;;;;;;;;;5095164;28;20016;-86
2023/08/27 01:00:20;;;;;;;14.43;11.00;;;;;;;;;;5076968;28;20024;-84
2023/08/27 01:02:48;;;;;;;15.75;10.85;;;;;;;;;;5076977;28;20039;-85
2023/08/27 01:05:14;;;;;;;13.57;11.18;;;;;;;;;;5094693;28;20085;-84
2023/08/27 01:07:47;;;;;;;17.88;12.10;;;;;;;;;;5094880;28;20020;-84
2023/08/27 01:10:37;;;;;;;15.10;12.38;;;;;;;;;;5093606;28;20474;-86
2023/08/27 01:13:10;;;;;;;19.00;12.18;;;640.10;2432.00;;;;;;5051899;28;20039;-84
2023/08/27 01:15:36;;;;;;;17.55;11.57;;;;;;;;;;5051571;28;20039;-85
2023/08/27 01:18:03;;;;;;;17.00;11.95;;;;;;;;;;5052462;28;20029;-85
2023/08/27 01:20:31;;;;;;;15.00;11.68;;;;;;;;;;5052317;28;20044;-84
2023/08/27 01:22:57;;;;;;;18.85;11.90;;;;;;;;;;5052321;28;20021;-85
2023/08/27 01:28:40;;;;;;;19.17;13.75;;;;;;;;;;5050710;28;20064;-86
2023/08/27 01:31:12;;;;;;;17.92;12.60;;;;;;;;;;5032033;28;20055;-85
2023/08/27 01:33:38;;;;;;;17.20;11.93;;;;;;;;;;5031940;28;20021;-85
2023/08/27 01:36:05;;;;;;;21.60;11.85;;;;;;;;;;5032162;28;20033;-86
2023/08/27 01:38:30;;;;;;;19.33;11.85;;;615.30;2432.00;;;;;;5031628;28;20048;-84
2023/08/27 01:40:56;;;;;;;16.77;12.18;;;;;;;;;;5031672;28;20061;-85
2023/08/27 01:43:22;;;;;;;17.70;12.10;;;;;;;;;;5032048;28;20057;-84
2023/08/27 01:45:49;;;;;;;16.98;11.95;;;;;;;;;;5032134;28;20096;-86
2023/08/27 01:48:15;;;;;;;21.05;12.48;;;;;;;;;;5031948;28;20113;-85
2023/08/27 01:50:41;;;;;;;17.58;12.60;;;;;;;;;;5080091;28;20447;-84
2023/08/27 01:53:07;;;;;;;16.17;12.80;;;;;;;;;;5093998;28;20024;-85
2023/08/27 01:55:34;;;;;;;21.88;13.68;;;;;;;;;;5075836;28;20024;-85
2023/08/27 01:58:00;;;;;;;18.67;12.65;;;;;;;;;;5094072;28;20472;-84
2023/08/27 02:00:26;;;;;;;18.63;12.98;;;;;;;;;;5093926;28;20023;-85
2023/08/27 02:02:52;;;;;;;17.50;12.25;;;;;;;;;;5075526;28;20068;-85
2023/08/27 02:05:18;;;;;;;16.30;12.75;;;;;;;;;;5093967;28;20051;-85
2023/08/27 02:07:44;;;;;;;20.67;12.63;;;;;;;;;;5093858;28;20031;-85
2023/08/27 02:10:10;;;;;;;17.35;13.20;;;614.90;2432.00;;;;;;5093925;28;20032;-85
2023/08/27 02:12:36;;;;;;;18.52;13.57;;;;;;;;;;5094041;28;20028;-85
2023/08/27 02:15:08;;;;;;;15.57;12.93;;;;;;;;;;5093895;28;20454;-84
2023/08/27 02:17:35;;;;;;;19.23;13.27;;;;;;;;;;5076850;28;20043;-85
2023/08/27 02:20:06;;;;;;;16.80;13.18;;;;;;;;;;5093873;28;20032;-85
2023/08/27 02:22:32;;;;;;;15.52;12.20;;;;;;;;;;5095154;28;20051;-86
2023/08/27 02:25:48;;;;;;;18.63;13.55;;;;;;;;;;5077717;28;20024;-85
2023/08/27 02:28:15;;;;;;;19.17;13.27;;;;;;;;;;5095104;28;20035;-85
2023/08/27 02:30:49;;;;;;;18.88;12.73;;;;;;;;;;5095274;28;20040;-87
2023/08/27 02:33:15;;;;;;;18.75;13.30;;;;;;;;;;5095454;28;20362;-87
2023/08/27 02:35:42;;;;;;;18.33;13.63;;;;;;;;;;5096738;28;20416;-85
2023/08/27 02:38:08;;;;;;;18.15;13.70;;;;;;;;;;5099324;28;20459;-85
2023/08/27 02:41:13;;;;;;;19.45;13.55;;;;;;;;;;5099136;28;20051;-85
2023/08/27 02:43:39;;;;;;;20.10;14.10;;;;;;;;;;5099150;28;20028;-84
2023/08/27 02:46:06;;;;;;;18.65;13.82;;;;;;;;;;5098453;28;20116;-85
2023/08/27 02:48:32;;;;;;;17.38;13.68;;;;;;;;;;5097376;28;20078;-85
2023/08/27 02:50:58;;;;;;;17.30;13.52;;;;;;;;;;5096984;28;20064;-86
2023/08/27 02:53:24;;;;;;;16.55;13.52;;;;;;;;;;5097259;28;20020;-84
2023/08/27 02:55:50;;;;;;;21.92;13.48;;;;;;;;;;5096909;28;20024;-85
2023/08/27 02:58:16;;;;;;;16.27;13.65;;;;;;;;;;5096985;28;20032;-86
2023/08/27 03:00:42;;;;;;;22.40;14.15;;;;;;;;;;5097157;28;20051;-86
2023/08/27 03:03:09;;;;;;;18.33;13.55;;;;;;;;;;5097558;28;20040;-86
2023/08/27 03:05:35;;;;;;;21.67;13.60;;;;;;;;;;5097051;28;20020;-86
2023/08/27 03:08:01;;;;;;;18.42;13.88;;;;;;;;;;5096811;28;20024;-86
2023/08/27 03:11:04;;;;;;;19.77;14.60;;;;;;;;;;5079044;28;20040;-87
2023/08/27 03:13:30;;;;;;;19.58;13.68;;;;;;;;;;5096968;28;20055;-88
2023/08/27 03:15:56;;;;;;;18.80;13.45;;;;;;;;;;5097163;28;20023;-86
2023/08/27 03:18:22;;;;;;;18.63;13.32;;;;;;;;;;5096893;28;20035;-87
2023/08/27 03:20:48;;;;;;;18.60;13.23;;;;;;;;;;5096602;28;20025;-87
2023/08/27 03:23:14;;;;;;;16.27;12.57;;;;;;;;;;5096599;28;20475;-86
2023/08/27 03:25:40;;;;;;;17.25;13.68;;;;;;;;;;5066710;28;20549;-86
2023/08/27 03:28:06;;;;;;;19.75;13.45;;;;;;;;;;5074997;28;20429;-87
2023/08/27 03:30:32;;;;;;;18.35;13.80;;;;;;;;;;5077088;28;20139;-87
2023/08/27 03:32:58;;;;;;;19.73;13.85;;;;;;;;;;5096626;28;20024;-85
2023/08/27 03:35:25;;;;;;;18.10;14.50;;;;;;;;;;5096394;28;20020;-87
2023/08/27 03:37:51;;;;;;;18.48;13.98;;;;;;;;;;5096453;28;20103;-86
2023/08/27 03:40:17;;;;;;;22.15;15.70;;;;;;;;;;5078439;28;20024;-85
2023/08/27 03:42:43;;;;;;;20.38;14.73;;;;;;;;;;5095887;28;20458;-87
2023/08/27 03:45:09;;;;;;;22.23;15.60;;;;;;;;;;5096271;28;20032;-86
2023/08/27 03:47:35;;;;;;;21.05;15.40;;;;;;;;;;5096101;28;20060;-86
2023/08/27 03:50:01;;;;;;;18.52;15.23;;;;;;;;;;5095808;28;20076;-86
2023/08/27 03:52:27;;;;;;;20.77;15.20;;;;;;;;;;5096225;28;20059;-85
2023/08/27 03:55:06;;;;;;;19.67;16.17;;;;;;;;;;5096064;28;20024;-85
2023/08/27 03:57:32;;;;;;;22.33;16.10;;;;;;;;;;5076827;28;20024;-85
2023/08/27 03:59:58;;;;;;;22.80;16.48;;;;;;;;;;5076835;28;20036;-86
2023/08/27 04:02:24;;;;;;;22.48;16.02;;;;;;;;;;5076678;28;20059;-81
2023/08/27 04:04:50;;;;;;;18.60;14.82;;;;;;;;;;5094500;28;20028;-80
2023/08/27 04:07:16;;;;;;;22.98;15.10;;;;;;;;;;5094633;28;20050;-81
2023/08/27 04:09:42;;;;;;;19.30;14.90;;;;;;;;;;5094479;28;20036;-81
2023/08/27 04:12:08;;;;;;;19.35;14.80;;;;;;;;;;5094495;28;20020;-81
2023/08/27 04:14:34;;;;;;;19.25;14.70;;;;;;;;;;5076190;28;20040;-81
2023/08/27 04:17:00;;;;;;;20.02;14.82;;;;;;;;;;5094962;28;20020;-80
2023/08/27 04:19:27;;;;;;;19.30;14.75;;;;;;;;;;5076513;28;20400;-84
2023/08/27 04:21:53;;;;;;;27.42;15.20;;;;;;;;;;5095426;28;20069;-85
2023/08/27 04:24:19;;;;;;;20.67;14.88;;;;;;;;;;5094893;28;20070;-85
2023/08/27 04:26:45;;;;;;;21.88;14.98;;;;;;;;;;5077340;28;20027;-85
2023/08/27 04:29:11;;;;;;;18.90;14.27;;;;;;;;;;5076372;28;20047;-86
2023/08/27 04:31:37;;;;;;;21.45;15.70;;;;;;;;;;5075887;28;20027;-81
2023/08/27 04:34:03;;;;;;;21.05;15.57;;;;;;;;;;5093891;28;20024;-80
2023/08/27 04:36:29;;;;;;;22.05;14.95;;;;;;;;;;5075781;28;20036;-85
2023/08/27 04:38:55;;;;;;;23.02;14.65;;;;;;;;;;5095374;28;20089;-85
2023/08/27 04:41:40;;;;;;;22.98;15.27;;;;;;;;;;5077011;28;20482;-87
2023/08/27 04:44:06;;;;;;;21.83;14.55;;;;;;;;;;5095253;28;20027;-86
2023/08/27 04:46:32;;;;;;;21.42;14.95;;;;;;;;;;5095163;28;20039;-87
2023/08/27 04:48:58;;;;;;;20.73;15.40;;;;;;;;;;5095331;28;20020;-87
2023/08/27 04:51:28;;;;;;;16.95;13.98;;;;;;;;;;5095201;28;20028;-87
2023/08/27 04:53:54;;;;;;;20.52;14.88;;;614.70;2432.00;;;;;;5077163;28;20024;-87
2023/08/27 04:57:01;;;;;;;19.13;14.85;;;614.70;2432.00;;;;;;5076883;28;20039;-87
2023/08/27 04:59:27;;;;;;;20.92;14.95;;;614.50;2432.00;;;;;;5076657;28;20229;-85
2023/08/27 05:01:54;;;;;;;21.02;14.55;;;614.50;2432.00;;;;;;5095035;28;20145;-87
2023/08/27 05:04:20;;;;;;;20.45;15.10;;;614.60;2432.00;;;;;;5095146;28;20032;-87
2023/08/27 05:06:46;;;;;;;23.63;15.15;;;;;;;;;;5094473;28;20024;-87
2023/08/27 05:09:12;;;;;;;20.75;15.48;;;614.70;2432.00;;;;;;5076985;28;20488;-88
2023/08/27 05:15:00;;;;;;;19.70;15.25;;;614.40;2432.00;;;;;;5095275;28;20055;-85
2023/08/27 05:17:25;;;;;;;21.88;15.10;;;614.50;2432.00;;;;;;5095166;28;20024;-86
2023/08/27 05:19:51;;;;;;;19.55;14.23;;;;;;;;;;5077090;28;20039;-86
2023/08/27 05:22:17;;;;;;;23.88;14.10;;;614.90;2432.00;;;;;;5095030;28;20020;-86
2023/08/27 05:24:43;;;;;;;18.08;15.02;;;614.90;2432.00;;;;;;5094130;28;20027;-87
2023/08/27 05:30:14;;;;;;;21.65;15.23;;;;;;;;;;5093728;28;20112;-87
2023/08/27 05:32:40;;;;;;;19.73;15.48;;;;;;;;;;5095218;28;20032;-89
2023/08/27 05:35:06;;;;;;;22.00;15.85;;;;;;;;;;5094936;28;20042;-88
2023/08/27 05:37:32;;;;;;;21.10;14.57;;;640.70;2432.00;;;;;;5081312;28;20056;-89
2023/08/27 05:39:58;;;;;;;19.98;14.40;;;640.50;2432.00;;;;;;5074487;28;20085;-89
2023/08/27 05:42:24;;;;;;;17.75;13.57;;;;;;;;;;5056886;28;20090;-85
2023/08/27 05:44:50;;;;;;;18.48;13.82;;;;;;;;;;5057398;28;20119;-86
2023/08/27 05:47:17;;;;;;;20.05;14.68;;;665.80;2432.00;;;;;;5076373;28;20025;-88
2023/08/27 05:49:44;;;;;;;20.45;14.32;;;;;;;;;;5077194;28;20078;-88
2023/08/27 05:52:10;;;;;;;21.05;14.20;;;666.10;2432.00;;;;;;5077672;28;20424;-87
2023/08/27 05:54:35;;;;;;;23.10;14.27;;;666.20;2432.00;;;;;;5059739;28;20028;-89
2023/08/27 05:57:01;;;;;;;20.65;14.68;;;666.20;2432.00;;;;;;5079148;28;20485;-82
2023/08/27 05:59:27;;;;;;;31.42;20.10;;;666.50;2432.00;;;;;;5061717;28;20382;-86
2023/08/27 06:01:52;;;;;;;44.05;31.52;;;666.20;2432.00;;;;;;5079192;28;20074;-87
2023/08/27 06:04:18;;;;;;;30.80;23.02;;;666.50;2432.00;;;;;;5059445;28;20021;-89
2023/08/27 06:06:44;;;;;;;40.80;29.85;;;691.30;2432.00;;;;;;5078213;28;20036;-86
2023/08/27 06:09:09;;;;;;;31.15;24.10;;;691.30;2432.00;;;;;;5080179;28;20453;-88
2023/08/27 06:11:35;;;;;;;31.80;21.95;;;691.30;2432.00;;;;;;5083477;28;20035;-89
2023/08/27 06:14:00;;;;;;;29.35;21.85;;;691.50;2432.00;;;;;;5082017;28;20021;-88
2023/08/27 06:16:26;;;;;;;26.35;19.30;;;691.80;2432.00;;;;;;5061339;28;20024;-88
2023/08/27 06:18:52;;;;;;;24.50;17.05;;;;;;;;;;5078998;28;20052;-83
2023/08/27 06:21:18;;;;;;;19.70;16.20;;;;;;;;;;5078260;28;20028;-89
2023/08/27 06:23:46;;;;;;;18.75;15.45;;;;;;;;;;5060973;28;20028;-89
2023/08/27 06:29:30;;;;;;;;;;;;;;;;;;5079494;28;20146;-88
2023/08/27 06:31:56;;;;;;;22.10;13.20;;;;;;;;;;5082661;28;19916;-90
2023/08/27 06:34:22;;;;;;;15.90;11.90;;;717.00;2432.00;;;;;;5084379;28;20035;-89
2023/08/27 06:36:48;;;;;;;20.60;12.75;;;717.00;2432.00;;;;;;5084106;28;20020;-89
2023/08/27 06:39:14;;;;;;;18.25;12.20;;;717.10;2432.00;;;;;;5069303;28;20028;-87
2023/08/27 06:41:41;;;;;;;18.10;11.93;;;716.80;2432.00;;;;;;5069007;28;20027;-89
2023/08/27 06:44:07;;;;;;;14.77;11.18;;;692.10;2432.00;;;;;;5087006;28;20025;-90
2023/08/27 06:46:33;;;;;;;18.08;11.27;;;692.10;2432.00;;;;;;5083425;28;20035;-89
2023/08/27 06:48:59;;;;;;;16.50;10.20;;;692.10;2432.00;;;;;;5062267;28;20584;-89
2023/08/27 06:51:26;;;;;;;14.50;10.50;;;717.10;2432.00;;;;;;5080176;28;20048;-89
2023/08/27 06:53:51;;;;;;;13.50;9.93;;;717.30;2432.00;;;;;;5060542;28;20083;-89
2023/08/27 06:56:35;;;;;;;16.73;10.48;;;;;;;;;;5078689;28;20051;-87
2023/08/27 06:59:01;;;;;;;;;;;;;;;;;;5078853;28;20024;-89
2023/08/27 07:01:27;;;;;;;12.35;10.10;;;;;;;;;;5078174;28;19963;-86
2023/08/27 07:03:53;;;;;;;15.57;10.23;;;;;;;;;;5059577;28;20134;-88
2023/08/27 07:06:20;;;;;;;15.68;10.23;;;;;;;;;;5079136;28;20040;-89
2023/08/27 07:08:46;;;;;;;16.80;10.70;;;;;;;;;;5082519;28;20055;-90
2023/08/27 07:11:12;;;;;;;15.65;10.10;;;;;;;;;;5079391;28;20043;-90
2023/08/27 07:13:38;;;;;;;21.88;11.10;;;;;;;;;;5077574;28;20016;-89
2023/08/27 07:16:04;;;;;;;14.82;10.68;;;;;;;;;;5060070;28;20043;-90
2023/08/27 07:18:30;;;;;;;18.73;10.50;;;;;;;;;;5080489;28;20055;-90
2023/08/27 07:20:57;;;;;;;15.32;11.15;;;;;;;;;;5079732;28;20146;-91
2023/08/27 07:23:23;;;;;;;14.45;11.32;;;;;;;;;;5080037;28;20542;-88
2023/08/27 07:31:56;;;;;;;19.00;11.75;;;;;;;;;;5079552;28;20055;-90
2023/08/27 07:34:22;;;;;;;19.67;11.50;;;;;;;;;;5081490;28;20031;-88
2023/08/27 07:36:48;;;;;;;19.05;11.02;;;;;;;;;;5080642;28;20028;-90
2023/08/27 07:39:14;;;;;;;17.63;11.77;;;;;;;;;;5077144;28;20044;-90
2023/08/27 07:41:40;;;;;;;15.52;10.93;;;;;;;;;;5059088;28;20024;-90
2023/08/27 07:44:07;;;;;;;17.80;12.02;;;;;;;;;;5077683;28;20032;-90
2023/08/27 07:46:33;;;;;;;17.92;10.65;;;;;;;;;;5077275;28;20040;-89
2023/08/27 07:48:59;;;;;;;15.18;10.73;;;;;;;;;;5076929;28;20020;-89
2023/08/27 07:51:25;;;;;;;17.58;10.73;;;;;;;;;;5076169;28;20035;-89
2023/08/27 07:53:51;;;;;;;16.45;10.52;;;;;;;;;;5075757;28;20492;-86
2023/08/27 07:56:35;;;;;;;17.52;11.30;;;;;;;;;;5058278;28;20406;-88
2023/08/27 07:59:02;;;;;;;14.48;10.52;;;;;;;;;;5057775;28;20051;-90
2023/08/27 08:01:28;;;;;;;14.63;10.55;;;;;;;;;;5058126;28;20029;-89
2023/08/27 08:03:54;;;;;;;18.45;10.40;;;;;;;;;;5076064;28;20079;-89
2023/08/27 08:06:20;;;;;;;17.48;10.50;;;;;;;;;;5076010;28;20025;-90
2023/08/27 08:08:47;;;;;;;15.70;10.35;;;;;;;;;;5076155;28;20107;-89
2023/08/27 08:11:13;;;;;;;16.27;10.60;;;;;;;;;;5074916;28;20059;-89
2023/08/27 08:13:41;;;;;;;16.88;10.00;;;;;;;;;;5074665;28;20100;-86
2023/08/27 08:16:07;;;;;;;15.52;10.48;;;;;;;;;;5056521;28;20181;-86
2023/08/27 08:18:33;;;;;;;16.55;10.10;;;;;;;;;;5074615;28;20493;-86
2023/08/27 08:21:00;;;;;;;14.32;10.30;;;;;;;;;;5056974;28;20028;-85
2023/08/27 08:23:27;;;;;;;14.95;9.85;;;;;;;;;;5075913;28;20031;-89
2023/08/27 08:26:30;;;;;;;17.42;10.25;;;;;;;;;;5057681;28;20032;-86
2023/08/27 08:28:56;;;;;;;19.90;10.50;;;;;;;;;;5075306;28;20492;-87
2023/08/27 08:31:22;;;;;;;16.35;10.50;;;;;;;;;;5057363;28;20045;-85
2023/08/27 08:33:48;;;;;;;16.23;10.27;;;;;;;;;;5075653;28;20095;-89
2023/08/27 08:36:15;;;;;;;25.10;11.15;;;;;;;;;;5075612;28;20028;-88
2023/08/27 08:38:41;;;;;;;14.32;10.40;;;;;;;;;;5075316;28;20040;-87
2023/08/27 08:41:39;;;;;;;15.00;10.73;;;;;;;;;;5075147;28;20035;-88
2023/08/27 08:44:26;;;;;;;16.00;10.73;;;;;;;;;;5075047;28;20033;-87
2023/08/27 08:46:52;;;;;;;14.85;10.57;;;;;;;;;;5057109;28;20393;-88
2023/08/27 08:49:22;;;;;;;14.48;11.40;;;;;;;;;;5058665;28;20036;-87
2023/08/27 08:51:51;;;;;;;16.75;10.82;;;;;;;;;;5075138;28;20024;-89
2023/08/27 08:54:21;;;;;;;14.90;11.73;;;;;;;;;;5074862;28;20071;-85
2023/08/27 08:56:49;;;;;;;17.73;11.48;;;;;;;;;;5056900;28;20083;-86
2023/08/27 08:59:15;;;;;;;17.95;11.70;;;;;;;;;;5074784;28;20031;-87
2023/08/27 09:01:42;;;;;;;16.30;11.65;;;;;;;;;;5057183;28;20031;-87
2023/08/27 09:04:08;;;;;;;19.98;11.93;;;;;;;;;;5074384;28;20021;-87
2023/08/27 09:06:35;;;;;;;17.83;12.18;;;;;;;;;;5058678;28;20032;-88
2023/08/27 09:09:01;;;;;;;19.00;12.68;;;;;;;;;;5076440;28;20013;-88
2023/08/27 09:11:28;;;;;;;15.60;12.43;;;;;;;;;;5075076;28;20029;-88
2023/08/27 09:13:55;;;;;;;16.10;12.57;;;;;;;;;;5058273;28;20033;-88
2023/08/27 09:16:21;;;;;;;20.70;12.82;;;;;;;;;;5074774;28;20043;-88
2023/08/27 09:18:47;;;;;;;19.42;12.95;;;;;;;;;;5057473;28;20032;-88
2023/08/27 09:21:13;;;;;;;17.75;13.07;;;;;;;;;;5056430;28;20024;-88
2023/08/27 09:23:39;;;;;;;19.58;13.15;;;;;;;;;;5056213;28;20024;-87
2023/08/27 09:26:24;;;;;;;20.50;13.50;;;;;;;;;;5056544;28;20060;-86
2023/08/27 09:28:50;;;;;;;22.08;13.60;;;;;;;;;;5056472;28;20131;-88
2023/08/27 09:31:39;;;;;;;21.77;13.68;;;;;;;;;;5055913;28;20044;-87
2023/08/27 09:34:06;;;;;;;18.63;13.15;;;;;;;;;;5056701;28;20792;-89
2023/08/27 09:36:33;;;;;;;21.70;13.13;;;;;;;;;;5056186;28;20025;-85
2023/08/27 09:39:12;;;;;;;18.02;12.88;;;;;;;;;;5056023;28;20040;-84
2023/08/27 09:41:42;;;;;;;17.23;12.73;;;;;;;;;;5055955;28;20031;-89
2023/08/27 09:44:08;;;;;;;19.38;12.88;;;;;;;;;;5074140;28;20387;-88
2023/08/27 09:46:35;;;;;;;19.20;12.63;;;;;;;;;;5073790;28;20052;-84
2023/08/27 09:49:06;;;;;;;18.98;13.30;;;;;;;;;;5073664;28;20025;-87
2023/08/27 09:51:35;;;;;;;17.85;12.00;;;;;;;;;;5074229;28;20025;-87
2023/08/27 09:54:12;;;;;;;20.27;12.20;;;;;;;;;;5073612;28;20455;-87
2023/08/27 09:56:38;;;;;;;19.33;12.48;;;;;;;;;;5074012;28;20025;-89
2023/08/27 09:59:05;;;;;;;20.13;13.10;;;;;;;;;;5073895;28;20103;-90
2023/08/27 10:01:34;;;;;;;18.45;12.68;;;896.40;1868.80;;;;;;5073994;28;20454;-90
2023/08/27 10:04:09;;;;;;;18.63;12.32;;;896.20;1894.40;;;;;;5055781;28;20101;-87
2023/08/27 10:06:35;;;;;;;;;;;;;;;;;;5075493;28;20013;-89
2023/08/27 10:09:01;;;;;;;20.83;13.40;;;;;;;;;;5073693;28;20368;-88
2023/08/27 10:14:32;;;;;;;21.20;12.63;;;;;;;;;;5074118;28;20032;-90
2023/08/27 10:16:58;;;;;;;17.20;12.65;;;;;;;;;;5055800;28;20462;-87
2023/08/27 10:19:25;;;;;;;17.02;11.95;;;;;;;;;;5073839;28;20025;-87
2023/08/27 10:21:51;;;;;;;18.75;11.88;;;;;;;;;;5074139;28;20103;-88
2023/08/27 10:24:18;;;;;;;18.33;12.18;;;;;;;;;;5074913;28;20432;-88
2023/08/27 10:27:01;;;;;;;18.33;12.55;;;;;;;;;;5074024;28;20444;-85
2023/08/27 10:29:28;;;;;;;16.88;11.57;;;;;;;;;;5074382;28;20033;-90
2023/08/27 10:31:55;;;;;;;21.83;11.65;;;;;;;;;;5057207;28;20076;-90
2023/08/27 10:34:23;;;;;;;16.55;12.30;;;;;;;;;;5074429;28;20020;-86
2023/08/27 10:36:50;;;;;;;16.40;11.75;;;;;;;;;;5056213;28;20107;-88
2023/08/27 10:39:18;;;;;;;16.17;11.70;;;922.00;1792.00;;;;;;5055946;28;20024;-88
2023/08/27 10:41:45;;;;;;;19.20;11.40;;;922.00;1792.00;;;;;;5073586;28;20048;-89
2023/08/27 10:44:15;;;;;;;17.65;11.80;;;922.30;1766.40;;;;;;5073346;28;20477;-88
2023/08/27 10:47:01;;;;;;;16.58;11.27;;;922.10;1766.40;;;;;;5074354;28;20029;-88
2023/08/27 10:49:36;;;;;;;20.25;11.90;;;922.10;1766.40;;;;;;5055060;28;20075;-88
2023/08/27 10:52:18;;;;;;;18.42;12.38;;;922.30;1740.80;;;;;;5055376;28;20040;-88
2023/08/27 10:54:48;;;;;;;22.60;15.68;;;922.40;1740.80;;;;;;5073629;28;20021;-89
2023/08/27 10:57:21;;;;;;;23.90;14.50;;;922.40;1715.20;;;;;;5056740;28;20035;-87
2023/08/27 10:59:47;;;;;;;14.07;11.63;;;922.50;1715.20;;;;;;5076790;28;20051;-90
2023/08/27 11:02:16;;;;;;;18.27;12.85;;;947.40;1715.20;;;;;;5058974;28;20024;-89
2023/08/27 11:04:46;;;;;;;16.77;11.38;;;948.00;1664.00;;;;;;5076602;28;20028;-88
2023/08/27 11:07:19;;;;;;;17.90;11.52;;;947.70;1612.80;;;;;;5077760;28;20035;-87
2023/08/27 11:09:55;;;;;;;17.80;11.38;;;922.50;1664.00;;;;;;5077086;28;20117;-88
2023/08/27 11:12:25;;;;;;;17.13;11.65;;;947.70;1638.40;;;;;;5077293;28;20039;-89
2023/08/27 11:14:52;;;;;;;17.38;10.88;;;947.50;1612.80;;;;;;5058801;28;20020;-89
2023/08/27 11:17:27;;;;;;;22.35;10.60;;;947.90;1587.20;;;;;;5076864;28;20028;-90
2023/08/27 11:19:53;;;;;;;18.35;10.68;;;;;;;;;;5060257;28;20029;-90
2023/08/27 11:22:20;;;;;;;18.20;10.57;;;;;;;;;;5077269;28;20060;-89
2023/08/27 11:24:52;;;;;;;21.10;11.65;;;;;;;;;;5076453;28;20477;-89
2023/08/27 11:27:22;;;;;;;13.73;10.20;;;972.80;1587.20;;;;;;5076365;28;20158;-89
2023/08/27 11:29:51;;;;;;;16.30;10.57;;;973.00;1561.60;;;;;;5076130;28;20040;-89
2023/08/27 11:32:19;;;;;;;15.40;9.82;;;973.10;1510.40;;;;;;5076527;28;20036;-89
2023/08/27 11:34:48;;;;;;;19.50;10.63;;;973.00;1484.80;;;;;;5059257;28;20025;-88
2023/08/27 11:37:14;;;;;;;18.92;10.57;;;973.00;1510.40;;;;;;5076237;28;20481;-90
2023/08/27 11:39:40;;;;;;;14.98;10.18;;;973.10;1484.80;;;;;;5058302;28;20136;-85
2023/08/27 11:42:45;;;;;;;16.45;10.18;;;973.10;1459.20;;;;;;5076407;28;20094;-88
2023/08/27 11:45:10;;;;;;;18.17;11.05;;;973.00;1484.80;;;;;;5076065;28;20105;-89
2023/08/27 11:47:40;;;;;;;16.00;10.25;;;973.10;1484.80;;;;;;5076509;28;20067;-89
2023/08/27 11:50:09;;;;;;;18.77;9.75;;;973.10;1484.80;;;;;;5058247;28;20097;-88
2023/08/27 11:52:36;;;;;;;19.20;10.65;;;973.10;1459.20;;;;;;5057967;28;20060;-89
2023/08/27 11:55:03;;;;;;;18.77;10.40;;;973.10;1459.20;;;;;;5075989;28;20377;-88
2023/08/27 12:00:54;;;;;;;16.92;10.40;;;;;;;;;;5075994;28;20462;-88
2023/08/27 12:03:21;;;;;;;18.83;10.00;;;;;;;;;;5057806;28;20566;-87
2023/08/27 12:05:48;;;;;;;17.40;10.20;;;;;;;;;;5057715;28;20355;-87
2023/08/27 12:08:15;;;;;;;21.25;10.00;;;;;;;;;;5073903;28;20029;-87
2023/08/27 12:10:44;;;;;;;16.05;10.23;;;;;;;;;;5074252;28;20036;-87
2023/08/27 12:13:10;;;;;;;19.52;10.25;;;;;;;;;;5074455;28;20469;-88
2023/08/27 12:15:37;;;;;;;20.92;9.65;;;;;;;;;;5057949;28;20032;-87
2023/08/27 12:18:09;;;;;;;16.48;9.02;;;;;;;;;;5075892;28;20032;-90
2023/08/27 12:20:36;;;;;;;14.13;9.23;;;;;;;;;;5075183;28;20039;-85
2023/08/27 12:23:12;;;;;;;17.25;9.00;;;;;;;;;;5056817;28;20035;-89
2023/08/27 12:25:45;;;;;;;22.02;9.25;;;;;;;;;;5057464;28;20038;-88
2023/08/27 12:28:11;;;;;;;23.15;9.45;;;;;;;;;;5056723;28;20036;-88
2023/08/27 12:30:37;;;;;;;18.35;9.75;;;;;;;;;;5073768;28;20048;-89
2023/08/27 12:33:04;;;;;;;18.80;9.73;;;;;;;;;;5055948;28;20068;-86
2023/08/27 12:35:30;;;;;;;18.63;9.20;;;;;;;;;;5057068;28;20025;-86
2023/08/27 12:37:57;;;;;;;17.23;9.05;;;;;;;;;;5075062;28;20463;-86
2023/08/27 12:40:23;;;;;;;14.48;8.48;;;;;;;;;;5074661;28;20047;-88
2023/08/27 12:42:49;;;;;;;19.08;9.05;;;;;;;;;;5074736;28;20025;-82
2023/08/27 12:45:15;;;;;;;18.67;9.15;;;;;;;;;;5073694;28;20128;-85
2023/08/27 12:47:41;;;;;;;17.25;9.15;;;;;;;;;;5074240;28;20555;-83
2023/08/27 12:50:08;;;;;;;23.55;9.93;;;1024.00;1228.80;;;;;;5057152;28;20040;-82
2023/08/27 12:52:34;;;;;;;19.73;9.07;;;;;;;;;;5074035;28;20093;-87
2023/08/27 12:55:02;;;;;;;18.27;8.88;;;;;;;;;;5074587;28;20037;-85
2023/08/27 12:57:28;;;;;;;17.85;8.60;;;;;;;;;;5074318;28;20025;-87
2023/08/27 12:59:54;;;;;;;17.80;8.52;;;;;;;;;;5056160;28;20617;-86
2023/08/27 13:02:20;;;;;;;16.58;8.45;;;;;;;;;;5074721;28;20033;-87
2023/08/27 13:04:46;;;;;;;17.50;8.18;;;;;;;;;;5074716;28;20045;-89
2023/08/27 13:07:12;;;;;;;15.82;8.40;;;;;;;;;;5074452;28;20032;-86
2023/08/27 13:09:38;;;;;;;19.77;8.85;;;;;;;;;;5056411;28;20474;-88
2023/08/27 13:12:07;;;;;;;24.25;8.30;;;;;;;;;;5056566;28;20029;-87
2023/08/27 13:14:33;;;;;;;18.27;8.20;;;;;;;;;;5075952;28;20112;-88
2023/08/27 13:16:59;;;;;;;19.10;8.50;;;;;;;;;;5074670;28;20107;-89
2023/08/27 13:19:25;;;;;;;20.17;8.75;;;;;;;;;;5074044;28;20021;-87
2023/08/27 13:21:52;;;;;;;16.40;7.85;;;;;;;;;;5074317;28;20020;-85
2023/08/27 13:24:18;;;;;;;19.05;7.75;;;;;;;;;;5074504;28;20447;-87
2023/08/27 13:29:48;;;;;;;21.08;8.30;;;;;;;;;;5075200;28;20075;-87
2023/08/27 13:32:14;;;;;;;17.48;8.68;;;;;;;;;;5075417;28;20524;-83
2023/08/27 13:34:40;;;;;;;19.55;8.82;;;;;;;;;;5056300;28;20038;-88
2023/08/27 13:37:06;;;;;;;17.05;8.18;;;;;;;;;;5056360;28;20020;-87
2023/08/27 13:39:32;;;;;;;17.45;8.10;;;;;;;;;;5074206;28;20082;-87
2023/08/27 13:42:02;;;;;;;19.73;8.50;;;;;;;;;;5056152;28;20071;-89
2023/08/27 13:44:28;;;;;;;17.90;8.10;;;;;;;;;;5073963;28;20028;-84
2023/08/27 13:46:54;;;;;;;17.13;8.00;;;;;;;;;;5073927;28;20111;-85
2023/08/27 13:49:20;;;;;;;16.25;8.32;;;;;;;;;;5055415;28;20071;-85
2023/08/27 13:51:46;;;;;;;18.33;8.02;;;;;;;;;;5056185;28;20493;-84
2023/08/27 13:54:12;;;;;;;15.18;7.78;;;;;;;;;;5075357;28;20386;-84
2023/08/27 13:56:38;;;;;;;14.57;7.45;;;;;;;;;;5054486;28;20043;-84
2023/08/27 13:59:04;;;;;;;15.43;7.90;;;;;;;;;;5072917;28;20034;-88
2023/08/27 14:01:30;;;;;;;19.65;7.68;;;;;;;;;;5072993;28;20058;-87
2023/08/27 14:03:56;;;;;;;15.10;7.40;;;;;;;;;;5072882;28;20059;-84
2023/08/27 14:06:22;;;;;;;16.98;7.65;;;;;;;;;;5072691;28;20021;-87
2023/08/27 14:08:55;;;;;;;18.67;7.75;;;;;;;;;;5072604;28;20119;-82
2023/08/27 14:11:21;;;;;;;16.20;7.95;;;;;;;;;;5072798;28;20051;-88
2023/08/27 14:13:47;;;;;;;13.52;7.50;;;;;;;;;;5073147;28;20115;-88
2023/08/27 14:16:14;;;;;;;17.33;7.93;;;;;;;;;;5072429;28;20059;-88
2023/08/27 14:18:40;;;;;;;15.05;7.97;;;;;;;;;;5072585;28;20028;-88
2023/08/27 14:21:07;;;;;;;14.70;8.05;;;;;;;;;;5072399;28;20043;-86
2023/08/27 14:23:33;;;;;;;17.40;8.13;;;;;;;;;;5072892;28;20031;-88